Terminal Aerodrome Forecast
Issued by NWS

Home | Current Version | Previous Version | Graphics & Text | Print | Product List | Glossary On
Versions: 1 2 3 4 5 6 7 8 9 10 11 12 13 14 15 16 17 18 19 20
000
FTUS43 KABR 231322 AAA
TAFPIR
TAF AMD
KPIR 231322Z 2313/2412 35013KT P6SM -RA OVC040
     FM231500 35017G25KT P6SM OVC050
     FM240200 VRB05KT P6SM SKC=

USA.gov is the U.S. government's official web portal to all federal, state and local government web resources and services.